sensor_id;sensor_type;location;lat;lon;timestamp;pressure;altitude;pressure_sealevel;temperature;humidity
22206;BME280;11272;50.104;8.754;2022-10-23T00:01:31;100612.59;;;13.91;84.98
22206;BME280;11272;50.104;8.754;2022-10-23T00:04:03;100622.44;;;13.89;85.25
22206;BME280;11272;50.104;8.754;2022-10-23T00:06:31;100615.44;;;13.85;85.16
22206;BME280;11272;50.104;8.754;2022-10-23T00:08:57;100622.66;;;13.83;85.09
22206;BME280;11272;50.104;8.754;2022-10-23T00:11:25;100613.91;;;13.78;85.45
22206;BME280;11272;50.104;8.754;2022-10-23T00:13:54;100619.38;;;13.73;85.45
22206;BME280;11272;50.104;8.754;2022-10-23T00:16:20;100619.53;;;13.69;85.25
22206;BME280;11272;50.104;8.754;2022-10-23T00:18:46;100623.22;;;13.65;85.55
22206;BME280;11272;50.104;8.754;2022-10-23T00:21:13;100623.38;;;13.60;85.49
22206;BME280;11272;50.104;8.754;2022-10-23T00:23:41;100615.50;;;13.56;85.57
22206;BME280;11272;50.104;8.754;2022-10-23T00:26:07;100621.81;;;13.52;85.70
22206;BME280;11272;50.104;8.754;2022-10-23T00:28:35;100617.59;;;13.46;85.57
22206;BME280;11272;50.104;8.754;2022-10-23T00:31:02;100619.41;;;13.44;85.59
22206;BME280;11272;50.104;8.754;2022-10-23T00:33:27;100617.75;;;13.40;85.63
22206;BME280;11272;50.104;8.754;2022-10-23T00:35:53;100619.63;;;13.36;85.78
22206;BME280;11272;50.104;8.754;2022-10-23T00:38:19;100626.84;;;13.33;85.70
22206;BME280;11272;50.104;8.754;2022-10-23T00:40:45;100619.78;;;13.32;85.99
22206;BME280;11272;50.104;8.754;2022-10-23T00:43:19;100615.34;;;13.31;86.24
22206;BME280;11272;50.104;8.754;2022-10-23T00:45:46;100608.19;;;13.33;86.00
22206;BME280;11272;50.104;8.754;2022-10-23T00:48:12;100617.09;;;13.32;86.11
22206;BME280;11272;50.104;8.754;2022-10-23T00:50:37;100611.81;;;13.30;86.21
22206;BME280;11272;50.104;8.754;2022-10-23T00:53:04;100616.22;;;13.31;86.38
22206;BME280;11272;50.104;8.754;2022-10-23T00:55:31;100604.63;;;13.32;86.39
22206;BME280;11272;50.104;8.754;2022-10-23T00:57:56;100613.47;;;13.34;86.33
22206;BME280;11272;50.104;8.754;2022-10-23T01:00:42;100597.47;;;13.34;86.29
22206;BME280;11272;50.104;8.754;2022-10-23T01:03:12;100598.44;;;13.32;86.18
22206;BME280;11272;50.104;8.754;2022-10-23T01:05:53;100593.25;;;13.27;86.53
22206;BME280;11272;50.104;8.754;2022-10-23T01:08:28;100589.66;;;13.28;86.87
22206;BME280;11272;50.104;8.754;2022-10-23T01:14:35;100580.78;;;13.28;87.06
22206;BME280;11272;50.104;8.754;2022-10-23T01:16:55;100574.56;;;13.27;86.95
22206;BME280;11272;50.104;8.754;2022-10-23T01:24:49;100572.75;;;13.29;87.15
22206;BME280;11272;50.104;8.754;2022-10-23T01:27:23;100579.00;;;13.28;87.08
22206;BME280;11272;50.104;8.754;2022-10-23T01:30:06;100574.56;;;13.27;87.36
22206;BME280;11272;50.104;8.754;2022-10-23T01:32:43;100573.72;;;13.25;87.40
22206;BME280;11272;50.104;8.754;2022-10-23T01:35:21;100573.81;;;13.24;87.51
22206;BME280;11272;50.104;8.754;2022-10-23T01:38:07;100580.94;;;13.23;87.32
22206;BME280;11272;50.104;8.754;2022-10-23T01:40:55;100573.84;;;13.22;87.48
22206;BME280;11272;50.104;8.754;2022-10-23T01:43:27;100564.97;;;13.22;87.60
22206;BME280;11272;50.104;8.754;2022-10-23T01:46:00;100557.88;;;13.21;87.59
22206;BME280;11272;50.104;8.754;2022-10-23T01:48:29;100564.09;;;13.21;87.94
22206;BME280;11272;50.104;8.754;2022-10-23T01:50:58;100566.78;;;13.20;87.88
22206;BME280;11272;50.104;8.754;2022-10-23T01:53:26;100568.69;;;13.16;87.74
22206;BME280;11272;50.104;8.754;2022-10-23T01:55:55;100559.03;;;13.12;87.76
22206;BME280;11272;50.104;8.754;2022-10-23T01:58:25;100555.56;;;13.08;87.86
22206;BME280;11272;50.104;8.754;2022-10-23T02:00:56;100551.19;;;13.06;87.94
22206;BME280;11272;50.104;8.754;2022-10-23T02:03:25;100552.13;;;13.03;87.67
22206;BME280;11272;50.104;8.754;2022-10-23T02:05:53;100553.16;;;12.99;87.93
22206;BME280;11272;50.104;8.754;2022-10-23T02:08:19;100548.78;;;12.97;88.07
22206;BME280;11272;50.104;8.754;2022-10-23T02:11:12;100545.28;;;12.95;87.86
22206;BME280;11272;50.104;8.754;2022-10-23T02:13:58;100544.59;;;12.88;87.93
22206;BME280;11272;50.104;8.754;2022-10-23T02:21:44;100529.66;;;12.83;87.99
22206;BME280;11272;50.104;8.754;2022-10-23T02:24:22;100524.38;;;12.81;88.12
22206;BME280;11272;50.104;8.754;2022-10-23T02:26:54;100530.59;;;12.82;88.30
22206;BME280;11272;50.104;8.754;2022-10-23T02:30:02;100535.94;;;12.80;88.23
22206;BME280;11272;50.104;8.754;2022-10-23T02:32:21;100528.88;;;12.79;88.37
22206;BME280;11272;50.104;8.754;2022-10-23T02:34:47;100534.16;;;12.81;88.48
22206;BME280;11272;50.104;8.754;2022-10-23T02:37:15;100534.19;;;12.79;88.24
22206;BME280;11272;50.104;8.754;2022-10-23T02:39:42;100524.53;;;12.77;88.53
22206;BME280;11272;50.104;8.754;2022-10-23T02:52:49;100482.72;;;12.77;88.77
22206;BME280;11272;50.104;8.754;2022-10-23T02:55:20;100500.41;;;12.81;88.89
22206;BME280;11272;50.104;8.754;2022-10-23T03:00:37;100503.94;;;12.82;88.82
22206;BME280;11272;50.104;8.754;2022-10-23T03:03:26;100513.88;;;12.77;88.61
22206;BME280;11272;50.104;8.754;2022-10-23T03:05:54;100505.00;;;12.76;89.01
22206;BME280;11272;50.104;8.754;2022-10-23T03:08:20;100502.25;;;12.78;89.02
22206;BME280;11272;50.104;8.754;2022-10-23T03:10:45;100503.19;;;12.77;89.02
22206;BME280;11272;50.104;8.754;2022-10-23T03:13:11;100490.72;;;12.77;89.34
22206;BME280;11272;50.104;8.754;2022-10-23T03:15:42;100493.34;;;12.79;89.09
22206;BME280;11272;50.104;8.754;2022-10-23T03:18:11;100492.47;;;12.78;89.33
22206;BME280;11272;50.104;8.754;2022-10-23T03:20:37;100489.91;;;12.75;89.24
22206;BME280;11272;50.104;8.754;2022-10-23T03:23:03;100491.69;;;12.75;89.37
22206;BME280;11272;50.104;8.754;2022-10-23T03:25:29;100491.69;;;12.75;89.49
22206;BME280;11272;50.104;8.754;2022-10-23T03:27:56;100505.06;;;12.73;89.38
22206;BME280;11272;50.104;8.754;2022-10-23T03:30:21;100509.59;;;12.71;89.41
22206;BME280;11272;50.104;8.754;2022-10-23T03:32:52;100501.63;;;12.70;89.60
22206;BME280;11272;50.104;8.754;2022-10-23T03:35:17;100492.78;;;12.68;89.26
22206;BME280;11272;50.104;8.754;2022-10-23T03:37:43;100496.38;;;12.66;89.27
22206;BME280;11272;50.104;8.754;2022-10-23T03:40:09;100495.44;;;12.68;89.46
22206;BME280;11272;50.104;8.754;2022-10-23T03:42:35;100495.44;;;12.68;89.18
22206;BME280;11272;50.104;8.754;2022-10-23T03:45:00;100480.47;;;12.63;89.30
22206;BME280;11272;50.104;8.754;2022-10-23T03:47:26;100485.84;;;12.62;89.08
22206;BME280;11272;50.104;8.754;2022-10-23T03:49:51;100492.16;;;12.59;89.25
22206;BME280;11272;50.104;8.754;2022-10-23T03:52:17;100501.97;;;12.57;89.28
22206;BME280;11272;50.104;8.754;2022-10-23T03:54:42;100495.00;;;12.53;89.37
22206;BME280;11272;50.104;8.754;2022-10-23T03:57:09;100476.38;;;12.52;89.36
22206;BME280;11272;50.104;8.754;2022-10-23T03:59:34;100474.56;;;12.54;89.53
22206;BME280;11272;50.104;8.754;2022-10-23T04:01:59;100483.47;;;12.53;89.53
22206;BME280;11272;50.104;8.754;2022-10-23T04:04:25;100493.25;;;12.52;89.54
22206;BME280;11272;50.104;8.754;2022-10-23T04:06:52;100503.03;;;12.50;89.70
22206;BME280;11272;50.104;8.754;2022-10-23T04:09:18;100499.53;;;12.50;89.61
22206;BME280;11272;50.104;8.754;2022-10-23T04:11:44;100496.91;;;12.48;90.30
22206;BME280;11272;50.104;8.754;2022-10-23T04:14:11;100496.91;;;12.48;89.78
22206;BME280;11272;50.104;8.754;2022-10-23T04:16:37;100492.53;;;12.46;89.81
22206;BME280;11272;50.104;8.754;2022-10-23T04:19:04;100489.97;;;12.43;89.88
22206;BME280;11272;50.104;8.754;2022-10-23T04:21:30;100496.19;;;12.42;89.99
22206;BME280;11272;50.104;8.754;2022-10-23T04:23:57;100492.66;;;12.41;89.90
22206;BME280;11272;50.104;8.754;2022-10-23T04:26:22;100503.34;;;12.40;89.75
22206;BME280;11272;50.104;8.754;2022-10-23T04:28:50;100510.50;;;12.39;90.21
22206;BME280;11272;50.104;8.754;2022-10-23T04:31:15;100509.56;;;12.40;90.28
22206;BME280;11272;50.104;8.754;2022-10-23T04:33:42;100516.66;;;12.40;90.21
22206;BME280;11272;50.104;8.754;2022-10-23T04:36:08;100507.84;;;12.39;90.42
22206;BME280;11272;50.104;8.754;2022-10-23T04:38:34;100497.19;;;12.39;90.27
22206;BME280;11272;50.104;8.754;2022-10-23T04:41:00;100484.66;;;12.41;90.46
22206;BME280;11272;50.104;8.754;2022-10-23T04:43:27;100490.78;;;12.45;90.42
22206;BME280;11272;50.104;8.754;2022-10-23T04:45:52;100486.28;;;12.47;90.55
22206;BME280;11272;50.104;8.754;2022-10-23T04:48:19;100483.59;;;12.48;90.63
22206;BME280;11272;50.104;8.754;2022-10-23T04:51:13;100478.22;;;12.50;90.67
22206;BME280;11272;50.104;8.754;2022-10-23T04:53:51;100487.06;;;12.50;90.59
22206;BME280;11272;50.104;8.754;2022-10-23T04:56:40;100488.03;;;12.48;90.39
22206;BME280;11272;50.104;8.754;2022-10-23T04:59:11;100490.66;;;12.49;90.64
22206;BME280;11272;50.104;8.754;2022-10-23T05:01:38;100484.41;;;12.50;90.63
22206;BME280;11272;50.104;8.754;2022-10-23T05:04:05;100479.94;;;12.51;90.61
22206;BME280;11272;50.104;8.754;2022-10-23T05:06:37;100483.56;;;12.50;90.40
22206;BME280;11272;50.104;8.754;2022-10-23T05:09:22;100480.94;;;12.48;90.33
22206;BME280;11272;50.104;8.754;2022-10-23T05:12:16;100468.56;;;12.46;90.50
22206;BME280;11272;50.104;8.754;2022-10-23T05:14:42;100472.13;;;12.45;90.52
22206;BME280;11272;50.104;8.754;2022-10-23T05:17:12;100475.66;;;12.45;90.45
22206;BME280;11272;50.104;8.754;2022-10-23T05:19:43;100486.41;;;12.42;90.44
22206;BME280;11272;50.104;8.754;2022-10-23T05:22:10;100492.66;;;12.41;90.56
22206;BME280;11272;50.104;8.754;2022-10-23T05:24:49;100497.25;;;12.36;90.71
22206;BME280;11272;50.104;8.754;2022-10-23T05:27:18;100495.56;;;12.34;90.68
22206;BME280;11272;50.104;8.754;2022-10-23T05:29:43;100484.03;;;12.33;90.82
22206;BME280;11272;50.104;8.754;2022-10-23T05:32:11;100472.53;;;12.31;90.61
22206;BME280;11272;50.104;8.754;2022-10-23T05:34:39;100477.91;;;12.30;90.67
22206;BME280;11272;50.104;8.754;2022-10-23T05:37:11;100467.31;;;12.28;90.58
22206;BME280;11272;50.104;8.754;2022-10-23T05:39:39;100470.00;;;12.27;90.85
22206;BME280;11272;50.104;8.754;2022-10-23T05:42:10;100470.03;;;12.25;90.91
22206;BME280;11272;50.104;8.754;2022-10-23T05:44:36;100470.94;;;12.24;90.98
22206;BME280;11272;50.104;8.754;2022-10-23T05:47:20;100467.47;;;12.22;91.01
22206;BME280;11272;50.104;8.754;2022-10-23T05:50:06;100463.97;;;12.20;90.98
22206;BME280;11272;50.104;8.754;2022-10-23T05:52:38;100464.88;;;12.19;90.94
22206;BME280;11272;50.104;8.754;2022-10-23T05:55:13;100447.13;;;12.19;90.74
22206;BME280;11272;50.104;8.754;2022-10-23T05:57:49;100446.25;;;12.19;90.94
22206;BME280;11272;50.104;8.754;2022-10-23T06:00:19;100447.13;;;12.19;91.02
22206;BME280;11272;50.104;8.754;2022-10-23T06:02:53;100448.00;;;12.20;91.11
22206;BME280;11272;50.104;8.754;2022-10-23T06:05:30;100431.16;;;12.19;91.20
22206;BME280;11272;50.104;8.754;2022-10-23T06:08:15;100427.56;;;12.20;91.00
22206;BME280;11272;50.104;8.754;2022-10-23T06:10:41;100431.16;;;12.19;91.36
22206;BME280;11272;50.104;8.754;2022-10-23T06:13:09;100431.94;;;12.23;91.35
22206;BME280;11272;50.104;8.754;2022-10-23T06:15:35;100440.75;;;12.25;91.31
22206;BME280;11272;50.104;8.754;2022-10-23T06:18:06;100445.19;;;12.24;91.13
22206;BME280;11272;50.104;8.754;2022-10-23T06:20:36;100439.81;;;12.28;91.34
22206;BME280;11272;50.104;8.754;2022-10-23T06:23:08;100430.03;;;12.28;91.20
22206;BME280;11272;50.104;8.754;2022-10-23T06:25:52;100423.75;;;12.29;91.37
22206;BME280;11272;50.104;8.754;2022-10-23T06:28:28;100435.25;;;12.31;91.53
22206;BME280;11272;50.104;8.754;2022-10-23T06:30:55;100433.44;;;12.33;91.71
22206;BME280;11272;50.104;8.754;2022-10-23T06:33:20;100431.56;;;12.35;91.61
22206;BME280;11272;50.104;8.754;2022-10-23T06:35:46;100435.09;;;12.37;91.21
22206;BME280;11272;50.104;8.754;2022-10-23T06:38:12;100444.75;;;12.40;91.47
22206;BME280;11272;50.104;8.754;2022-10-23T06:40:55;100446.50;;;12.41;91.48
22206;BME280;11272;50.104;8.754;2022-10-23T06:43:28;100437.66;;;12.40;91.37
22206;BME280;11272;50.104;8.754;2022-10-23T06:46:14;100441.13;;;12.44;91.85
22206;BME280;11272;50.104;8.754;2022-10-23T06:48:59;100440.09;;;12.48;92.09
22206;BME280;11272;50.104;8.754;2022-10-23T06:51:29;100442.59;;;12.54;92.00
22206;BME280;11272;50.104;8.754;2022-10-23T06:53:55;100443.28;;;12.60;91.96
22206;BME280;11272;50.104;8.754;2022-10-23T06:56:53;100433.38;;;12.65;91.91
22206;BME280;11272;50.104;8.754;2022-10-23T06:59:27;100434.91;;;12.73;91.86
22206;BME280;11272;50.104;8.754;2022-10-23T07:01:55;100435.63;;;12.78;91.88
22206;BME280;11272;50.104;8.754;2022-10-23T07:04:21;100433.69;;;12.83;91.88
22206;BME280;11272;50.104;8.754;2022-10-23T07:06:47;100429.94;;;12.90;92.21
22206;BME280;11272;50.104;8.754;2022-10-23T07:09:13;100429.75;;;12.96;92.34
22206;BME280;11272;50.104;8.754;2022-10-23T07:11:50;100426.84;;;13.03;92.17
22206;BME280;11272;50.104;8.754;2022-10-23T07:14:17;100436.44;;;13.09;92.20
22206;BME280;11272;50.104;8.754;2022-10-23T07:16:43;100444.38;;;13.12;92.10
22206;BME280;11272;50.104;8.754;2022-10-23T07:19:09;100437.16;;;13.16;92.25
22206;BME280;11272;50.104;8.754;2022-10-23T07:21:53;100430.72;;;13.23;92.10
22206;BME280;11272;50.104;8.754;2022-10-23T07:24:37;100440.16;;;13.33;92.18
22206;BME280;11272;50.104;8.754;2022-10-23T07:27:14;100433.63;;;13.41;92.64
22206;BME280;11272;50.104;8.754;2022-10-23T07:29:40;100435.06;;;13.52;92.35
22206;BME280;11272;50.104;8.754;2022-10-23T07:32:06;100435.66;;;13.61;92.29
22206;BME280;11272;50.104;8.754;2022-10-23T07:34:52;100438.84;;;13.72;92.52
22206;BME280;11272;50.104;8.754;2022-10-23T07:37:23;100426.97;;;13.81;91.99
22206;BME280;11272;50.104;8.754;2022-10-23T07:39:49;100431.03;;;13.91;92.10
22206;BME280;11272;50.104;8.754;2022-10-23T07:42:17;100434.25;;;14.01;92.21
22206;BME280;11272;50.104;8.754;2022-10-23T07:44:42;100435.66;;;14.11;92.01
22206;BME280;11272;50.104;8.754;2022-10-23T07:47:08;100430.03;;;14.20;91.35
22206;BME280;11272;50.104;8.754;2022-10-23T07:49:42;100425.22;;;14.29;91.42
22206;BME280;11272;50.104;8.754;2022-10-23T07:52:08;100418.56;;;14.41;91.08
22206;BME280;11272;50.104;8.754;2022-10-23T07:54:54;100414.16;;;14.63;91.01
22206;BME280;11272;50.104;8.754;2022-10-23T07:57:20;100417.31;;;14.96;91.03
22206;BME280;11272;50.104;8.754;2022-10-23T07:59:54;100413.97;;;15.35;91.33
22206;BME280;11272;50.104;8.754;2022-10-23T08:02:21;100414.06;;;15.75;90.99
22206;BME280;11272;50.104;8.754;2022-10-23T08:04:48;100421.44;;;16.11;90.25
22206;BME280;11272;50.104;8.754;2022-10-23T08:07:40;100419.03;;;16.64;89.61
22206;BME280;11272;50.104;8.754;2022-10-23T08:10:06;100414.38;;;17.05;88.03
22206;BME280;11272;50.104;8.754;2022-10-23T08:12:36;100410.22;;;17.35;86.01
22206;BME280;11272;50.104;8.754;2022-10-23T08:15:03;100399.28;;;17.57;84.73
22206;BME280;11272;50.104;8.754;2022-10-23T08:17:38;100408.78;;;17.81;83.22
22206;BME280;11272;50.104;8.754;2022-10-23T08:20:15;100416.22;;;18.11;81.79
22206;BME280;11272;50.104;8.754;2022-10-23T08:22:43;100396.13;;;18.33;80.21
22206;BME280;11272;50.104;8.754;2022-10-23T08:25:13;100401.97;;;18.59;78.84
22206;BME280;11272;50.104;8.754;2022-10-23T08:27:40;100404.25;;;18.82;78.02
22206;BME280;11272;50.104;8.754;2022-10-23T08:30:05;100403.97;;;19.02;76.71
22206;BME280;11272;50.104;8.754;2022-10-23T08:32:31;100396.44;;;19.24;75.45
22206;BME280;11272;50.104;8.754;2022-10-23T08:35:01;100398.69;;;19.48;74.29
22206;BME280;11272;50.104;8.754;2022-10-23T08:37:29;100399.91;;;19.72;72.98
22206;BME280;11272;50.104;8.754;2022-10-23T08:39:55;100391.53;;;19.92;72.05
22206;BME280;11272;50.104;8.754;2022-10-23T08:42:43;100382.50;;;20.07;70.64
22206;BME280;11272;50.104;8.754;2022-10-23T08:48:47;100373.25;;;20.11;68.58
22206;BME280;11272;50.104;8.754;2022-10-23T08:51:40;100362.25;;;20.00;67.96
22206;BME280;11272;50.104;8.754;2022-10-23T08:54:16;100364.81;;;19.88;67.48
22206;BME280;11272;50.104;8.754;2022-10-23T08:56:47;100360.56;;;19.69;67.11
22206;BME280;11272;50.104;8.754;2022-10-23T08:59:47;100361.38;;;19.56;67.02
22206;BME280;11272;50.104;8.754;2022-10-23T09:02:18;100361.06;;;19.46;67.02
22206;BME280;11272;50.104;8.754;2022-10-23T09:04:47;100362.38;;;19.39;66.88
22206;BME280;11272;50.104;8.754;2022-10-23T09:07:38;100364.34;;;19.35;66.76
22206;BME280;11272;50.104;8.754;2022-10-23T09:12:41;100364.28;;;19.37;66.75
22206;BME280;11272;50.104;8.754;2022-10-23T09:15:46;100364.44;;;19.34;66.53
22206;BME280;11272;50.104;8.754;2022-10-23T09:18:17;100359.78;;;19.22;66.97
22206;BME280;11272;50.104;8.754;2022-10-23T09:20:46;100364.06;;;19.10;66.62
22206;BME280;11272;50.104;8.754;2022-10-23T09:23:19;100359.56;;;18.95;66.58
22206;BME280;11272;50.104;8.754;2022-10-23T09:25:47;100357.75;;;18.80;66.84
22206;BME280;11272;50.104;8.754;2022-10-23T09:28:26;100358.41;;;18.68;67.17
22206;BME280;11272;50.104;8.754;2022-10-23T09:31:08;100361.78;;;18.56;67.39
22206;BME280;11272;50.104;8.754;2022-10-23T09:33:34;100339.97;;;18.44;67.58
22206;BME280;11272;50.104;8.754;2022-10-23T09:41:28;100341.13;;;18.23;68.39
22206;BME280;11272;50.104;8.754;2022-10-23T09:46:40;100347.34;;;18.08;68.72
22206;BME280;11272;50.104;8.754;2022-10-23T09:49:18;100347.66;;;18.02;68.96
22206;BME280;11272;50.104;8.754;2022-10-23T09:52:02;100350.34;;;18.02;69.33
22206;BME280;11272;50.104;8.754;2022-10-23T09:54:30;100358.28;;;18.05;69.48
22206;BME280;11272;50.104;8.754;2022-10-23T09:57:05;100343.72;;;18.09;69.56
22206;BME280;11272;50.104;8.754;2022-10-23T09:59:40;100346.50;;;18.23;69.81
22206;BME280;11272;50.104;8.754;2022-10-23T10:02:35;100345.25;;;18.46;69.72
22206;BME280;11272;50.104;8.754;2022-10-23T10:05:32;100348.59;;;18.67;69.53
22206;BME280;11272;50.104;8.754;2022-10-23T10:10:53;100343.22;;;18.98;68.73
22206;BME280;11272;50.104;8.754;2022-10-23T10:15:59;100337.72;;;19.15;68.15
22206;BME280;11272;50.104;8.754;2022-10-23T10:18:32;100327.88;;;19.30;67.92
22206;BME280;11272;50.104;8.754;2022-10-23T10:31:47;100300.81;;;20.19;64.95
22206;BME280;11272;50.104;8.754;2022-10-23T10:34:36;100293.53;;;20.07;64.75
22206;BME280;11272;50.104;8.754;2022-10-23T10:37:39;100288.59;;;19.86;64.61
22206;BME280;11272;50.104;8.754;2022-10-23T10:45:33;100297.22;;;19.32;64.57
22206;BME280;11272;50.104;8.754;2022-10-23T10:56:21;100287.28;;;19.03;65.49
22206;BME280;11272;50.104;8.754;2022-10-23T10:58:59;100286.53;;;19.01;66.03
22206;BME280;11272;50.104;8.754;2022-10-23T11:06:29;100275.59;;;18.88;66.68
22206;BME280;11272;50.104;8.754;2022-10-23T11:09:04;100272.66;;;18.77;66.97
22206;BME280;11272;50.104;8.754;2022-10-23T11:11:37;100274.94;;;18.69;67.39
22206;BME280;11272;50.104;8.754;2022-10-23T11:14:06;100263.47;;;18.66;67.90
22206;BME280;11272;50.104;8.754;2022-10-23T11:16:39;100261.66;;;18.66;67.91
22206;BME280;11272;50.104;8.754;2022-10-23T11:19:19;100250.63;;;18.71;68.12
22206;BME280;11272;50.104;8.754;2022-10-23T11:21:56;100249.91;;;18.83;68.43
22206;BME280;11272;50.104;8.754;2022-10-23T11:33:26;100236.53;;;19.85;67.34
22206;BME280;11272;50.104;8.754;2022-10-23T11:36:11;100237.28;;;20.01;66.66
22206;BME280;11272;50.104;8.754;2022-10-23T11:38:39;100216.00;;;20.11;66.38
22206;BME280;11272;50.104;8.754;2022-10-23T11:41:17;100213.47;;;20.22;65.81
22206;BME280;11272;50.104;8.754;2022-10-23T11:48:55;100222.69;;;20.73;64.79
22206;BME280;11272;50.104;8.754;2022-10-23T11:51:35;100232.53;;;20.74;64.56
22206;BME280;11272;50.104;8.754;2022-10-23T11:56:37;100230.34;;;20.67;63.97
22206;BME280;11272;50.104;8.754;2022-10-23T11:59:30;100208.09;;;20.63;63.88
22206;BME280;11272;50.104;8.754;2022-10-23T12:01:59;100201.16;;;20.59;63.74
22206;BME280;11272;50.104;8.754;2022-10-23T12:05:05;100180.91;;;20.66;63.72
22206;BME280;11272;50.104;8.754;2022-10-23T12:07:39;100181.19;;;20.88;63.70
22206;BME280;11272;50.104;8.754;2022-10-23T12:10:18;100182.25;;;21.38;62.95
22206;BME280;11272;50.104;8.754;2022-10-23T12:13:25;100194.88;;;22.13;61.48
22206;BME280;11272;50.104;8.754;2022-10-23T12:15:52;100193.84;;;23.22;60.04
22206;BME280;11272;50.104;8.754;2022-10-23T12:18:17;100193.22;;;24.31;57.68
22206;BME280;11272;50.104;8.754;2022-10-23T12:20:51;100178.91;;;25.15;55.12
22206;BME280;11272;50.104;8.754;2022-10-23T12:31:35;100133.66;;;26.26;49.54
22206;BME280;11272;50.104;8.754;2022-10-23T12:39:28;100098.75;;;24.89;49.92
22206;BME280;11272;50.104;8.754;2022-10-23T12:41:54;100106.69;;;24.70;50.16
22206;BME280;11272;50.104;8.754;2022-10-23T12:44:22;100115.09;;;24.46;50.46
22206;BME280;11272;50.104;8.754;2022-10-23T12:46:53;100111.69;;;24.22;50.44
22206;BME280;11272;50.104;8.754;2022-10-23T12:49:22;100113.56;;;23.88;50.71
22206;BME280;11272;50.104;8.754;2022-10-23T12:51:55;100101.03;;;23.65;50.99
22206;BME280;11272;50.104;8.754;2022-10-23T12:54:21;100111.84;;;23.42;51.51
22206;BME280;11272;50.104;8.754;2022-10-23T12:56:47;100103.78;;;23.19;51.56
22206;BME280;11272;50.104;8.754;2022-10-23T12:59:19;100093.56;;;23.00;51.91
22206;BME280;11272;50.104;8.754;2022-10-23T13:01:45;100089.44;;;22.83;52.30
22206;BME280;11272;50.104;8.754;2022-10-23T13:04:29;100080.75;;;22.67;52.19
22206;BME280;11272;50.104;8.754;2022-10-23T13:07:00;100087.59;;;22.49;52.95
22206;BME280;11272;50.104;8.754;2022-10-23T13:09:35;100080.28;;;22.38;53.07
22206;BME280;11272;50.104;8.754;2022-10-23T13:12:34;100072.13;;;22.27;53.26
22206;BME280;11272;50.104;8.754;2022-10-23T13:20:25;100062.06;;;21.93;54.07
22206;BME280;11272;50.104;8.754;2022-10-23T13:22:56;100058.41;;;21.81;54.24
22206;BME280;11272;50.104;8.754;2022-10-23T13:27:50;100060.16;;;21.69;54.72
22206;BME280;11272;50.104;8.754;2022-10-23T13:30:37;100059.53;;;21.66;54.78
22206;BME280;11272;50.104;8.754;2022-10-23T13:33:24;100052.81;;;21.71;54.98
22206;BME280;11272;50.104;8.754;2022-10-23T13:38:57;100038.78;;;21.66;54.75
22206;BME280;11272;50.104;8.754;2022-10-23T13:41:38;100034.59;;;21.50;55.31
22206;BME280;11272;50.104;8.754;2022-10-23T13:44:04;100037.41;;;21.48;55.44
22206;BME280;11272;50.104;8.754;2022-10-23T13:46:30;100042.72;;;21.50;55.42
22206;BME280;11272;50.104;8.754;2022-10-23T13:48:57;100032.25;;;21.45;55.38
22206;BME280;11272;50.104;8.754;2022-10-23T13:51:27;100034.19;;;21.43;55.59
22206;BME280;11272;50.104;8.754;2022-10-23T13:53:54;100024.56;;;21.39;55.57
22206;BME280;11272;50.104;8.754;2022-10-23T13:56:23;100012.91;;;21.38;55.73
22206;BME280;11272;50.104;8.754;2022-10-23T13:58:49;100015.94;;;21.34;55.83
22206;BME280;11272;50.104;8.754;2022-10-23T14:01:22;100018.13;;;21.29;56.03
22206;BME280;11272;50.104;8.754;2022-10-23T14:03:49;100011.22;;;21.25;56.18
22206;BME280;11272;50.104;8.754;2022-10-23T14:06:16;100021.34;;;21.21;56.48
22206;BME280;11272;50.104;8.754;2022-10-23T14:08:41;99994.59;;;21.18;56.70
22206;BME280;11272;50.104;8.754;2022-10-23T14:11:09;99992.28;;;21.12;56.80
22206;BME280;11272;50.104;8.754;2022-10-23T14:13:34;99997.50;;;21.02;56.97
22206;BME280;11272;50.104;8.754;2022-10-23T14:16:00;99993.72;;;20.92;57.44
22206;BME280;11272;50.104;8.754;2022-10-23T14:18:26;99999.13;;;20.92;57.49
22206;BME280;11272;50.104;8.754;2022-10-23T14:20:51;100002.34;;;20.97;57.70
22206;BME280;11272;50.104;8.754;2022-10-23T14:23:17;100008.38;;;21.01;57.80
22206;BME280;11272;50.104;8.754;2022-10-23T14:25:44;100003.00;;;21.01;57.88
22206;BME280;11272;50.104;8.754;2022-10-23T14:28:09;100005.59;;;21.02;58.08
22206;BME280;11272;50.104;8.754;2022-10-23T14:30:35;99998.47;;;21.01;57.94
22206;BME280;11272;50.104;8.754;2022-10-23T14:33:02;100007.53;;;21.00;58.03
22206;BME280;11272;50.104;8.754;2022-10-23T14:35:27;99998.69;;;20.98;57.97
22206;BME280;11272;50.104;8.754;2022-10-23T14:37:53;99987.03;;;20.85;58.31
22206;BME280;11272;50.104;8.754;2022-10-23T14:40:19;99981.09;;;20.80;58.50
22206;BME280;11272;50.104;8.754;2022-10-23T14:42:44;99977.53;;;20.80;58.69
22206;BME280;11272;50.104;8.754;2022-10-23T14:45:10;99969.31;;;20.81;58.79
22206;BME280;11272;50.104;8.754;2022-10-23T14:47:36;99964.78;;;20.82;58.95
22206;BME280;11272;50.104;8.754;2022-10-23T14:50:02;99965.75;;;20.81;59.18
22206;BME280;11272;50.104;8.754;2022-10-23T14:52:28;99970.53;;;20.77;59.17
22206;BME280;11272;50.104;8.754;2022-10-23T14:54:55;99966.41;;;20.72;59.37
22206;BME280;11272;50.104;8.754;2022-10-23T14:57:20;99965.22;;;20.63;59.47
22206;BME280;11272;50.104;8.754;2022-10-23T14:59:47;99961.25;;;20.56;59.64
22206;BME280;11272;50.104;8.754;2022-10-23T15:02:14;99960.47;;;20.54;60.06
22206;BME280;11272;50.104;8.754;2022-10-23T15:04:40;99967.78;;;20.52;60.16
22206;BME280;11272;50.104;8.754;2022-10-23T15:07:07;99963.50;;;20.49;60.17
22206;BME280;11272;50.104;8.754;2022-10-23T15:09:33;99953.78;;;20.47;60.55
22206;BME280;11272;50.104;8.754;2022-10-23T15:12:02;99947.63;;;20.45;60.68